All
Nhill Airport (Nhill, Victoria) YNHL Weather
|
Nhill, Victoria (YNHL)
Clear skies
Windy |
|
59 °F |
There is no TAF data available at YNHL or any nearby airports.
Recent YNHL METAR history
| Date | Time (AEST) | Flight Rules | Wind Dir. | Speed | Type | Height AGL (ft) | Visibility | Temp (°C) | Temp (°F) | Dew Point (°C) | Dew Point (°F) | Rel. Humid. | Pressure | Density Altitude | Remarks |
|---|---|---|---|---|---|---|---|---|---|---|---|---|---|---|---|
| 08-May | 12:00PM | n/a | 250° | 17 kt | Missing | 15° | 59° | 10° | 50° | 72% | 1027 mb | 47 ft | |||
| 08-May | 11:00AM | n/a | 230° | 17 kt | Missing | 14° | 57° | 10° | 50° | 77% | 1027 mb | -73 ft | |||
| 08-May | 10:00AM | n/a | 230° | 15 kt | Missing | 13° | 55° | 10° | 50° | 82% | 1027 mb | -193 ft | |||
| 08-May | 09:00AM | n/a | 230° | 13 kt | Missing | 13° | 55° | 11° | 51° | 88% | 1027 mb | -193 ft | |||
| 08-May | 08:00AM | n/a | 240° | 15 kt | Missing | 12° | 53° | 11° | 51° | 94% | 1026 mb | -284 ft | |||
| 08-May | 07:00AM | n/a | 250° | 15 kt | Missing | 12° | 53° | 11° | 51° | 94% | 1025 mb | -254 ft | |||
| 08-May | 06:00AM | n/a | 250° | 14 kt | Missing | 11° | 51° | 10° | 50° | 94% | 1025 mb | -374 ft | |||
| 08-May | 05:00AM | n/a | 270° | 15 kt | Missing | 12° | 53° | 10° | 50° | 88% | 1025 mb | -254 ft | |||
| 08-May | 04:00AM | n/a | 260° | 15 kt | Missing | 12° | 53° | 9° | 48° | 82% | 1025 mb | -254 ft | |||
| 08-May | 03:00AM | n/a | 260° | 15 kt | Missing | 12° | 53° | 9° | 48° | 82% | 1025 mb | -254 ft | |||
| 08-May | 02:00AM | n/a | 260° | 13 kt | Missing | 11° | 51° | 8° | 46° | 82% | 1026 mb | -404 ft | |||
| 08-May | 01:00AM | n/a | 250° | 12 kt | Missing | 11° | 51° | 9° | 48° | 87% | 1026 mb | -404 ft | |||
| 08-May | 12:00AM | n/a | 270° | 12 kt | Missing | 11° | 51° | 8° | 46° | 82% | 1026 mb | -404 ft | |||
| 07-May | 11:00PM | n/a | 260° | 11 kt | Missing | 10° | 50° | 8° | 46° | 87% | 1026 mb | -524 ft | |||
| 07-May | 10:00PM | n/a | 260° | 11 kt | Missing | 11° | 51° | 7° | 44° | 76% | 1027 mb | -433 ft | |||
| 07-May | 09:00PM | n/a | 270° | 14 kt | Missing | 10° | 50° | 7° | 44° | 82% | 1026 mb | -524 ft | |||
| 07-May | 08:00PM | n/a | 260° | 11 kt | Missing | 10° | 50° | 6° | 42° | 76% | 1027 mb | -553 ft | |||
| 07-May | 07:00PM | n/a | 270° | 10 kt | Missing | 11° | 51° | 5° | 41° | 66% | 1026 mb | -404 ft | |||
| 07-May | 06:00PM | n/a | 250° | 10 kt | Missing | 12° | 53° | 4° | 39° | 58% | 1026 mb | -284 ft | |||
| 07-May | 05:00PM | n/a | 250° | 15 kt | Missing | 13° | 55° | 4° | 39° | 54% | 1026 mb | -164 ft | |||
| 07-May | 04:00PM | n/a | 240° | 18 kt | Missing | 14° | 57° | 3° | 37° | 47% | 1026 mb | -44 ft | |||
| 07-May | 03:00PM | n/a | 230° | 17 kt | Missing | 14° | 57° | 2° | 35° | 44% | 1026 mb | -44 ft | |||
| 07-May | 02:00PM | n/a | 230° | 16 kt | Missing | 13° | 55° | 4° | 39° | 54% | 1026 mb | -164 ft | |||
| 07-May | 01:00PM | n/a | 230° | 16 kt | Missing | 14° | 57° | 4° | 39° | 51% | 1026 mb | -44 ft |
Login
| Your browser is unsupported. upgrade your browser |
